Time;durP1;ratioP1;P1;durP2;ratioP2;P2;SDS_P1;SDS_P2;PMS_P1;PMS_P2;Temp;Humidity;BMP_temperature;BMP_pressure;BME280_temperature;BME280_humidity;BME280_pressure;Samples;Min_cycle;Max_cycle;Signal;HPM_P1;HPM_P2
2023/01/14 00:00:15;;;;;;;76.57;48.00;;;;;;;7.46;93.30;95167.59;5034916;28;20874;-87
2023/01/14 00:02:42;;;;;;;57.27;34.97;;;;;;;7.49;92.43;95170.94;5035411;28;20456;-87
2023/01/14 00:05:09;;;;;;;50.03;32.57;;;;;;;7.18;93.34;95178.22;5035027;28;20455;-87
2023/01/14 00:07:39;;;;;;;47.57;33.50;;;;;;;7.17;92.99;95175.72;5035344;28;20863;-87
2023/01/14 00:10:07;;;;;;;40.63;28.63;;;;;;;7.14;93.50;95172.38;5035788;28;20471;-86
2023/01/14 00:12:34;;;;;;;38.10;27.20;;;;;;;7.15;94.31;95168.84;5035136;28;20435;-87
2023/01/14 00:15:01;;;;;;;43.20;29.90;;;;;;;7.21;94.11;95177.19;5034822;28;20496;-87
2023/01/14 00:17:29;;;;;;;46.90;30.07;;;;;;;7.24;93.90;95177.84;5034520;28;20984;-87
2023/01/14 00:19:56;;;;;;;46.63;29.67;;;;;;;7.26;93.72;95175.97;5034698;28;20456;-87
2023/01/14 00:22:23;;;;;;;51.13;30.70;;;;;;;7.26;93.38;95173.34;5035468;28;20843;-87
2023/01/14 00:24:49;;;;;;;51.83;31.80;;;;;;;7.27;93.23;95176.81;5035145;28;20542;-87
2023/01/14 00:27:16;;;;;;;54.80;35.87;;;;;;;7.28;93.82;95176.69;5034952;28;20446;-87
2023/01/14 00:29:43;;;;;;;58.83;36.87;;;;;;;7.30;93.58;95169.59;5034592;28;20454;-87
2023/01/14 00:32:10;;;;;;;73.73;42.73;;;;;;;7.28;93.23;95168.88;5034634;28;20782;-87
2023/01/14 00:34:39;;;;;;;69.90;40.63;;;;;;;7.24;93.94;95156.97;5034805;28;20454;-87
2023/01/14 00:37:07;;;;;;;66.93;40.77;;;;;;;7.18;94.32;95161.75;5034944;28;20446;-86
2023/01/14 00:39:33;;;;;;;67.97;36.90;;;;;;;7.09;95.42;95153.59;5034838;28;20451;-87
2023/01/14 00:42:00;;;;;;;69.27;36.93;;;;;;;7.11;95.48;95156.09;5034720;28;20459;-87
2023/01/14 00:44:27;;;;;;;53.53;34.17;;;;;;;7.07;95.84;95158.09;5034054;28;20481;-87
2023/01/14 00:46:54;;;;;;;53.00;30.10;;;;;;;7.01;96.08;95155.06;5034554;28;20880;-87
2023/01/14 00:49:23;;;;;;;47.63;28.73;;;;;;;6.91;96.23;95149.59;5033999;28;20455;-87
2023/01/14 00:51:52;;;;;;;42.97;28.00;;;;;;;6.88;97.35;95148.97;5034936;28;20474;-87
2023/01/14 00:54:20;;;;;;;43.60;27.07;;;;;;;6.92;96.82;95153.88;5034378;28;20854;-87
2023/01/14 00:56:47;;;;;;;45.73;27.20;;;;;;;6.95;97.08;95150.25;5034668;28;20501;-87
2023/01/14 00:59:19;;;;;;;51.03;29.63;;;;;;;7.00;97.09;95151.63;5034326;28;20440;-87
2023/01/14 01:01:46;;;;;;;42.00;26.87;;;;;;;6.99;97.00;95144.72;5034623;28;20926;-87
2023/01/14 01:04:13;;;;;;;56.03;28.70;;;;;;;7.05;96.39;95146.91;5034008;28;20551;-87
2023/01/14 01:06:40;;;;;;;44.20;28.80;;;;;;;7.07;96.82;95146.81;5034296;28;20873;-87
2023/01/14 01:09:10;;;;;;;46.13;28.23;;;;;;;7.07;96.75;95144.22;5034228;28;20446;-87
2023/01/14 01:11:37;;;;;;;47.27;28.17;;;;;;;7.11;96.26;95156.09;5034218;28;20491;-87
2023/01/14 01:14:04;;;;;;;49.33;29.27;;;;;;;7.10;96.58;95142.22;5034381;28;20458;-87
2023/01/14 01:16:31;;;;;;;48.30;29.00;;;;;;;7.12;96.61;95149.94;5034407;28;20431;-88
2023/01/14 01:18:58;;;;;;;49.50;31.17;;;;;;;7.13;97.25;95149.00;5034133;28;20446;-87
2023/01/14 01:21:26;;;;;;;58.03;33.30;;;;;;;7.09;97.51;95142.31;5034052;28;20453;-87
2023/01/14 01:23:53;;;;;;;54.40;33.10;;;;;;;7.12;97.07;95142.13;5034323;28;20482;-87
2023/01/14 01:26:23;;;;;;;48.87;31.83;;;;;;;7.17;96.77;95152.25;5034266;28;20476;-87
2023/01/14 01:28:52;;;;;;;49.20;31.40;;;;;;;7.20;95.83;95150.25;5034470;28;20423;-87
2023/01/14 01:31:39;;;;;;;49.70;31.03;;;;;;;7.20;95.69;95144.19;5034314;28;20448;-87
2023/01/14 01:34:06;;;;;;;51.40;29.87;;;;;;;7.22;95.80;95145.75;5034141;28;20443;-87
2023/01/14 01:36:32;;;;;;;52.97;32.13;;;;;;;7.24;95.81;95140.47;5034128;28;20451;-87
2023/01/14 01:38:59;;;;;;;64.00;38.77;;;;;;;7.26;95.49;95138.59;5033723;28;20434;-87
2023/01/14 01:41:29;;;;;;;77.23;39.10;;;;;;;7.27;95.40;95141.09;5034190;28;20450;-87
2023/01/14 01:44:03;;;;;;;57.10;35.37;;;;;;;7.28;95.43;95137.53;5033918;28;20481;-87
2023/01/14 01:46:32;;;;;;;62.13;34.37;;;;;;;7.26;95.29;95142.03;5037657;28;20789;-87
2023/01/14 01:49:03;;;;;;;64.97;37.17;;;;;;;7.22;95.17;95144.94;5037567;28;20450;-87
2023/01/14 01:51:34;;;;;;;55.63;33.97;;;;;;;7.24;94.92;95135.25;5037826;28;20442;-87
2023/01/14 01:54:03;;;;;;;62.57;35.57;;;;;;;7.26;94.39;95135.97;5037474;28;20435;-87
2023/01/14 01:56:34;;;;;;;64.17;38.50;;;;;;;7.22;94.44;95127.50;5037716;28;20485;-87
2023/01/14 01:59:03;;;;;;;55.50;32.73;;;;;;;7.21;94.67;95122.38;5037761;28;20437;-87
2023/01/14 02:01:31;;;;;;;54.03;32.07;;;;;;;7.20;95.37;95128.53;5037679;28;20447;-87
2023/01/14 02:11:05;;;;;;;41.60;28.33;;;;;;;7.19;94.54;95109.44;5036389;28;20430;-87
2023/01/14 02:13:45;;;;;;;46.60;29.00;;;;;;;7.16;94.50;95120.09;5037307;28;20451;-87
2023/01/14 02:16:20;;;;;;;40.17;27.83;;;;;;;7.15;94.93;95121.03;5037217;28;20447;-87
2023/01/14 02:18:57;;;;;;;45.53;28.13;;;;;;;7.16;94.80;95114.88;5037470;28;20454;-87
2023/01/14 02:21:29;;;;;;;45.07;27.90;;;;;;;7.16;94.82;95114.88;5036785;28;20443;-87
2023/01/14 02:24:26;;;;;;;41.80;28.90;;;;;;;7.12;94.62;95119.47;5037508;28;21004;-87
2023/01/14 02:33:48;;;;;;;30.83;21.03;;;;;;;6.92;94.83;95119.13;4976081;28;20465;-87
2023/01/14 02:36:24;;;;;;;29.70;20.67;;;;;;;6.89;94.63;95116.72;4976226;28;20456;-87
2023/01/14 02:39:01;;;;;;;27.87;19.57;;;;;;;6.91;94.95;95109.63;4976112;28;20441;-87
2023/01/14 02:44:27;;;;;;;27.47;18.00;;;;;;;6.79;94.91;95113.91;4962386;28;20480;-87
2023/01/14 02:47:17;;;;;;;26.67;19.53;;;;;;;6.73;95.13;95117.75;4975843;28;20508;-87
2023/01/14 02:49:50;;;;;;;26.70;19.97;;;;;;;6.74;95.25;95116.81;4976051;28;20453;-87
2023/01/14 02:52:19;;;;;;;25.60;18.27;;;;;;;6.80;95.64;95115.56;4975792;28;20457;-87
2023/01/14 02:54:53;;;;;;;29.87;17.93;;;;;;;6.87;95.49;95119.44;4975769;28;20485;-87
2023/01/14 02:57:39;;;;;;;30.93;19.50;;;;;;;6.92;95.33;95119.13;4975646;28;20532;-87
2023/01/14 03:00:12;;;;;;;30.57;19.40;;;;;;;6.98;94.58;95116.13;4975613;28;20454;-87
2023/01/14 03:02:52;;;;;;;32.53;21.93;;;;;;;7.03;93.93;95111.44;4975662;28;20441;-87
2023/01/14 03:05:35;;;;;;;38.73;23.60;;;;;;;7.05;93.95;95125.22;5017264;28;20528;-87
2023/01/14 03:08:09;;;;;;;35.33;24.83;;;;;;;6.94;94.64;95115.50;5036834;28;20456;-87
2023/01/14 03:10:42;;;;;;;36.13;22.97;;;;;;;6.96;93.39;95115.41;5036080;28;20457;-87
2023/01/14 03:13:15;;;;;;;35.50;23.67;;;;;;;6.92;93.96;95114.75;5036654;28;20450;-87
2023/01/14 03:15:48;;;;;;;35.40;23.10;;;;;;;6.92;94.13;95113.91;5036414;28;20493;-87
2023/01/14 03:18:21;;;;;;;39.37;22.93;;;;;;;6.94;94.07;95122.47;5036076;28;20882;-86
2023/01/14 03:20:56;;;;;;;35.10;23.47;;;;;;;6.98;93.45;95118.75;5035804;28;20524;-87
2023/01/14 03:23:26;;;;;;;47.83;29.13;;;;;;;7.03;93.88;95122.72;5036081;28;20748;-87
2023/01/14 03:25:55;;;;;;;44.13;26.37;;;;;;;7.07;93.76;95124.16;5036094;28;20457;-87
2023/01/14 03:28:26;;;;;;;36.13;24.97;;;;;;;7.07;94.06;95110.28;5036085;28;20446;-87
2023/01/14 03:30:58;;;;;;;41.23;25.30;;;;;;;7.12;94.18;95121.25;5035780;28;20451;-87
2023/01/14 03:33:32;;;;;;;39.33;26.23;;;;;;;7.14;94.26;95124.59;5035766;28;21015;-87
2023/01/14 03:36:02;;;;;;;44.53;28.57;;;;;;;7.17;94.45;95115.72;5036040;28;20454;-87
2023/01/14 03:38:33;;;;;;;38.87;24.90;;;;;;;7.22;94.24;95104.00;5035707;28;20456;-87
2023/01/14 03:41:02;;;;;;;38.07;22.87;;;;;;;7.25;93.31;95111.66;5035739;28;21176;-87
2023/01/14 03:43:35;;;;;;;32.17;20.80;;;;;;;7.18;93.11;95110.38;5035703;28;20450;-87
2023/01/14 03:46:02;;;;;;;30.43;22.50;;;;;;;6.99;93.21;95109.97;5035462;28;20431;-86
2023/01/14 03:48:29;;;;;;;31.70;23.37;;;;;;;6.89;93.27;95111.50;5036000;28;20516;-87
2023/01/14 03:51:07;;;;;;;26.97;18.90;;;;;;;6.88;94.07;95123.72;5035657;28;20942;-87
2023/01/14 03:53:41;;;;;;;26.93;18.97;;;;;;;6.91;93.84;95128.72;5035785;28;20835;-87
2023/01/14 03:56:21;;;;;;;31.67;18.57;;;;;;;6.90;94.75;95121.00;5035668;28;20466;-87
2023/01/14 03:58:54;;;;;;;21.60;15.17;;;;;;;6.87;93.90;95122.03;5035579;28;20504;-87
2023/01/14 04:01:27;;;;;;;19.00;15.03;;;;;;;6.83;94.15;95116.19;5035162;28;20447;-87
2023/01/14 04:03:55;;;;;;;16.47;12.73;;;;;;;6.83;93.54;95110.97;5035429;28;20911;-87
2023/01/14 04:06:23;;;;;;;17.23;12.03;;;;;;;6.88;93.14;95115.06;5035312;28;20450;-87
2023/01/14 04:08:50;;;;;;;16.13;10.47;;;;;;;6.86;93.67;95117.75;5034679;28;20512;-86
2023/01/14 04:11:17;;;;;;;15.47;11.30;;;;;;;6.81;93.12;95112.03;5035181;28;20965;-87
2023/01/14 04:16:27;;;;;;;45.57;22.60;;;;;;;6.80;92.87;95111.19;5035260;28;20527;-87
2023/01/14 04:18:54;;;;;;;29.17;17.13;;;;;;;6.78;93.49;95107.03;5048219;28;20538;-86
2023/01/14 04:21:22;;;;;;;17.10;11.20;;;;;;;6.77;92.60;95113.16;5052064;28;20459;-87
2023/01/14 04:23:49;;;;;;;16.70;10.97;;;;;;;6.76;92.48;95103.69;5041000;28;20459;-87
2023/01/14 04:26:16;;;;;;;16.40;10.47;;;;;;;6.75;92.20;95102.84;5034402;28;20443;-87
2023/01/14 04:28:43;;;;;;;10.87;9.73;;;;;;;6.73;92.11;95094.28;5034691;28;20459;-86
2023/01/14 04:31:10;;;;;;;9.20;7.70;;;;;;;6.72;92.30;95100.44;5034995;28;20451;-87
2023/01/14 04:33:37;;;;;;;10.33;8.90;;;;;;;6.73;92.04;95099.50;5034842;28;20952;-87
2023/01/14 04:36:04;;;;;;;10.73;8.43;;;;;;;6.72;91.56;95100.44;5035144;28;20449;-88
2023/01/14 04:38:32;;;;;;;11.40;8.73;;;;;;;6.68;91.32;95098.97;5034865;28;20500;-87
2023/01/14 04:40:59;;;;;;;10.90;8.37;;;;;;;6.71;90.78;95104.00;5034872;28;20465;-87
2023/01/14 04:43:25;;;;;;;12.00;8.93;;;;;;;6.73;90.15;95098.66;5034417;28;20533;-87
2023/01/14 04:45:52;;;;;;;13.77;10.27;;;;;;;6.72;89.52;95103.06;5034396;28;21059;-87
2023/01/14 04:48:19;;;;;;;11.40;9.07;;;;;;;6.74;89.84;95101.19;5034823;28;20188;-87
2023/01/14 04:50:46;;;;;;;11.70;7.67;;;;;;;6.75;89.89;95094.19;5034752;28;20456;-87
2023/01/14 04:56:36;;;;;;;13.20;8.20;;;;;;;6.68;90.73;95103.38;5026870;28;20462;-87
2023/01/14 04:59:03;;;;;;;10.37;8.13;;;;;;;6.68;90.84;95101.59;5034605;28;20469;-87
2023/01/14 05:01:30;;;;;;;10.67;9.13;;;;;;;6.68;90.40;95105.97;5045181;28;21017;-87
2023/01/14 05:03:59;;;;;;;11.50;9.10;;;;;;;6.64;91.13;95105.31;5043728;28;20456;-87
2023/01/14 05:06:26;;;;;;;13.30;9.90;;;;;;;6.58;91.00;95097.06;5035039;28;20526;-87
2023/01/14 05:12:15;;;;;;;13.30;11.07;;;;;;;6.42;91.27;95098.09;5053780;28;20813;-87
2023/01/14 05:14:42;;;;;;;13.27;10.97;;;;;;;6.43;91.86;95101.53;5037841;28;20467;-87
2023/01/14 05:17:09;;;;;;;13.30;11.10;;;;;;;6.45;91.47;95100.47;5041847;28;20479;-87
2023/01/14 05:19:36;;;;;;;16.67;10.80;;;;;;;6.54;91.84;95101.66;5056706;28;20464;-87
2023/01/14 05:22:03;;;;;;;12.17;10.10;;;;;;;6.55;91.31;95103.31;5058461;28;20519;-87
2023/01/14 05:24:48;;;;;;;11.70;8.40;;;;;;;6.56;91.57;95102.38;5058362;28;20468;-87
2023/01/14 05:27:17;;;;;;;14.03;9.93;;;;;;;6.55;91.47;95103.31;5041121;28;20895;-87
2023/01/14 05:29:43;;;;;;;9.43;7.47;;;;;;;6.52;91.36;95109.56;5038371;28;20454;-87
2023/01/14 05:32:12;;;;;;;9.93;7.97;;;;;;;6.53;91.57;95102.59;5038251;28;20459;-87
2023/01/14 05:34:38;;;;;;;14.30;8.80;;;;;;;6.53;91.98;95106.03;5038351;28;20557;-87
2023/01/14 05:37:06;;;;;;;11.97;8.97;;;;;;;6.56;91.32;95107.59;5037918;28;20876;-87
2023/01/14 05:39:33;;;;;;;10.57;7.80;;;;;;;6.62;91.28;95109.78;5038257;28;20546;-87
2023/01/14 05:47:29;;;;;;;11.20;8.70;;;;;;;6.61;90.50;95110.72;5037340;28;20413;-87
2023/01/14 05:49:56;;;;;;;10.80;9.10;;;;;;;6.59;90.41;95104.78;5037519;28;20892;-87
2023/01/14 05:52:23;;;;;;;15.57;10.03;;;;;;;6.58;90.05;95110.09;5037627;28;20443;-87
2023/01/14 05:54:50;;;;;;;11.13;10.00;;;;;;;6.50;90.55;95110.59;5037878;28;20446;-87
2023/01/14 05:57:17;;;;;;;12.20;9.10;;;;;;;6.46;90.87;95109.97;5037343;28;20486;-87
2023/01/14 05:59:45;;;;;;;10.23;7.97;;;;;;;6.47;90.53;95114.25;5037547;28;20475;-86
2023/01/14 06:11:01;;;;;;;11.60;8.33;;;;;;;6.38;90.80;95111.41;5037036;28;20487;-87
2023/01/14 06:13:28;;;;;;;11.07;8.93;;;;;;;6.36;90.55;95116.72;5037308;28;20429;-86
2023/01/14 06:15:56;;;;;;;12.17;8.60;;;;;;;6.40;91.16;95117.38;5037210;28;20454;-86
2023/01/14 06:18:24;;;;;;;9.70;8.33;;;;;;;6.38;90.99;95114.84;5037303;28;20752;-86
2023/01/14 06:20:53;;;;;;;11.07;7.73;;;;;;;6.35;91.84;95115.03;5037200;28;20538;-87
2023/01/14 06:23:22;;;;;;;9.40;8.07;;;;;;;6.34;92.29;95112.53;5036628;28;20505;-86
2023/01/14 06:26:09;;;;;;;10.40;7.50;;;;;;;6.38;91.39;95111.41;5037019;28;20491;-85
2023/01/14 06:28:36;;;;;;;7.87;6.63;;;;;;;6.37;91.27;95113.19;5036820;28;20438;-86
2023/01/14 06:31:09;;;;;;;10.27;8.27;;;;;;;6.43;91.19;95117.16;5036159;28;20454;-86
2023/01/14 06:33:37;;;;;;;10.70;8.20;;;;;;;6.48;90.78;95112.47;5036742;28;20822;-84
2023/01/14 06:36:04;;;;;;;14.67;9.63;;;;;;;6.48;90.24;95112.47;5036649;28;20434;-85
2023/01/14 06:38:31;;;;;;;9.57;7.67;;;;;;;6.43;89.42;95114.56;5036157;28;20435;-85
2023/01/14 06:40:59;;;;;;;10.53;7.80;;;;;;;6.43;89.60;95119.75;5036704;28;20434;-89
2023/01/14 06:43:26;;;;;;;14.00;11.10;;;;;;;6.36;89.70;95121.94;5037248;28;20451;-89
2023/01/14 06:45:53;;;;;;;13.87;10.20;;;;;;;6.40;89.56;95128.63;5036933;28;20477;-88
2023/01/14 06:48:22;;;;;;;12.90;10.50;;;;;;;6.43;89.67;95127.59;5037284;28;20454;-89
2023/01/14 06:50:49;;;;;;;30.27;18.37;;;;;;;6.37;90.74;95134.03;5036829;28;20453;-89
2023/01/14 06:53:16;;;;;;;34.93;23.30;;;;;;;6.26;94.19;95130.44;5036248;28;20442;-87
2023/01/14 06:55:43;;;;;;;42.17;26.33;;;;;;;6.22;95.05;95128.03;5036602;28;20482;-88
2023/01/14 06:58:10;;;;;;;47.33;28.70;;;;;;;6.05;97.56;95122.19;5036841;28;20462;-91
2023/01/14 07:00:38;;;;;;;28.40;20.17;;;;;;;6.54;100.00;95125.09;5036806;28;20466;-81
2023/01/14 07:03:04;;;;;;;65.43;44.27;;;;;;;6.67;100.00;95120.78;5035955;28;20435;-84
2023/01/14 07:05:33;;;;;;;61.63;39.03;;;;;;;6.46;99.56;95122.16;5035234;28;20488;-84
2023/01/14 07:08:00;;;;;;;49.60;30.90;;;;;;;6.66;100.00;95123.50;5035196;28;20922;-83
2023/01/14 07:10:26;;;;;;;49.20;30.90;;;;;;;6.58;99.80;95125.75;5035255;28;20454;-84
2023/01/14 07:12:53;;;;;;;43.37;28.43;;;;;;;6.55;98.78;95142.41;5035377;28;20897;-84
2023/01/14 07:15:21;;;;;;;42.93;29.47;;;;;;;6.43;98.25;95135.41;5035238;28;20442;-84
2023/01/14 07:17:49;;;;;;;50.90;30.57;;;;;;;6.32;98.57;95143.06;5035254;28;20432;-84
2023/01/14 07:20:17;;;;;;;49.27;31.40;;;;;;;6.22;99.55;95145.44;5035327;28;20442;-82
2023/01/14 07:26:08;;;;;;;52.83;36.23;;;;;;;5.99;100.00;95141.66;5034092;28;20947;-84
2023/01/14 07:28:34;;;;;;;57.90;34.77;;;;;;;5.99;100.00;95151.25;5034630;28;20944;-83
2023/01/14 07:31:05;;;;;;;59.13;37.13;;;;;;;6.08;100.00;95150.69;5053695;28;20499;-83
2023/01/14 07:33:32;;;;;;;54.30;34.87;;;;;;;5.95;100.00;95153.22;5054012;28;20998;-83
2023/01/14 07:35:58;;;;;;;54.17;31.67;;;;;;;5.96;100.00;95154.88;5054108;28;20833;-83
2023/01/14 07:38:25;;;;;;;53.57;33.83;;;;;;;5.91;100.00;95156.94;5053801;28;20445;-84
2023/01/14 07:40:52;;;;;;;66.50;38.33;;;;;;;5.89;100.00;95158.78;5054074;28;20449;-84
2023/01/14 07:43:21;;;;;;;58.33;37.57;;;;;;;5.96;100.00;95161.88;5053277;28;20453;-84
2023/01/14 07:45:48;;;;;;;57.90;36.53;;;;;;;6.06;100.00;95157.75;5054609;28;20477;-84
2023/01/14 07:48:14;;;;;;;62.93;35.07;;;;;;;6.12;100.00;95155.59;5054739;28;20870;-88
2023/01/14 07:50:41;;;;;;;59.80;37.43;;;;;;;6.20;100.00;95158.56;5055003;28;20465;-84
2023/01/14 07:53:09;;;;;;;58.33;37.43;;;;;;;6.15;100.00;95163.22;5054679;28;20453;-86
2023/01/14 07:55:37;;;;;;;55.00;36.27;;;;;;;6.20;100.00;95162.94;5055265;28;20868;-85
2023/01/14 07:58:04;;;;;;;65.10;39.00;;;;;;;6.22;99.45;95163.66;5054405;28;20471;-84
2023/01/14 08:03:54;;;;;;;55.77;32.73;;;;;;;6.22;99.62;95167.09;5034058;28;20417;-85
2023/01/14 08:06:20;;;;;;;53.90;36.77;;;;;;;6.27;99.33;95165.97;5034757;28;20494;-86
2023/01/14 08:08:47;;;;;;;58.20;36.30;;;;;;;6.33;99.39;95165.56;5034623;28;20450;-85
2023/01/14 08:11:22;;;;;;;59.50;33.17;;;;;;;6.39;98.79;95173.03;5035033;28;20458;-85
2023/01/14 08:13:50;;;;;;;55.23;34.00;;;;;;;6.43;98.06;95169.28;5054062;28;20463;-84
2023/01/14 08:19:40;;;;;;;40.23;28.73;;;;;;;6.63;97.88;95184.47;5053106;28;20922;-84
2023/01/14 08:22:07;;;;;;;39.17;24.80;;;;;;;6.69;96.33;95178.03;5054124;28;20468;-85
2023/01/14 08:24:33;;;;;;;38.00;24.47;;;;;;;6.73;95.04;95189.94;5053870;28;20453;-83
2023/01/14 08:27:00;;;;;;;34.47;22.37;;;;;;;6.79;94.52;95192.97;5053893;28;20972;-85
2023/01/14 08:29:27;;;;;;;39.40;23.60;;;;;;;6.85;94.09;95194.34;5054155;28;20496;-85
2023/01/14 08:35:17;;;;;;;26.40;19.70;;;;;;;6.91;91.52;95195.72;5053444;28;20940;-87
2023/01/14 08:37:44;;;;;;;25.00;17.17;;;;;;;6.88;90.63;95194.16;5054415;28;20435;-85
2023/01/14 08:40:11;;;;;;;26.93;17.27;;;;;;;6.93;91.06;95194.66;5053986;28;20442;-85
2023/01/14 08:42:38;;;;;;;47.13;25.73;;;;;;;6.86;91.43;95190.81;5054220;28;20457;-84
2023/01/14 08:48:27;;;;;;;24.03;17.20;;;;;;;6.98;89.92;95197.00;5053341;28;20425;-83
2023/01/14 08:51:00;;;;;;;17.83;13.33;;;;;;;7.03;89.79;95200.16;5058475;28;20517;-86
2023/01/14 08:53:27;;;;;;;22.03;15.70;;;;;;;7.16;88.35;95201.00;5065176;28;20447;-83
2023/01/14 08:55:57;;;;;;;26.70;15.87;;;;;;;7.25;87.60;95197.78;5064132;28;20853;-84
2023/01/14 08:58:24;;;;;;;21.53;15.17;;;;;;;7.40;87.78;95198.53;5054169;28;20554;-83
2023/01/14 09:00:54;;;;;;;14.37;10.03;;;;;;;7.20;84.92;95197.22;5053431;28;20469;-84
2023/01/14 09:03:21;;;;;;;12.77;9.60;;;;;;;7.32;84.90;95195.59;5053412;28;20828;-84
2023/01/14 09:05:48;;;;;;;9.70;7.07;;;;;;;7.30;84.32;95189.66;5034901;28;20485;-85
2023/01/14 09:19:14;;;;;;;18.70;8.47;;;;;;;7.42;82.86;95180.97;5049629;28;20547;-84
2023/01/14 09:21:40;;;;;;;7.97;5.70;;;;;;;7.21;81.73;95178.03;5039559;28;20507;-85
2023/01/14 09:24:09;;;;;;;8.27;6.00;;;;;;;6.95;82.29;95173.72;5053774;28;20450;-85
2023/01/14 09:26:35;;;;;;;9.83;7.27;;;;;;;6.90;82.90;95167.97;5053448;28;20472;-85
2023/01/14 09:29:02;;;;;;;7.80;7.03;;;;;;;7.11;83.46;95166.53;5053225;28;20434;-84
2023/01/14 09:31:35;;;;;;;9.17;6.97;;;;;;;7.32;83.92;95166.88;5052996;28;20450;-84
2023/01/14 09:34:02;;;;;;;8.93;7.03;;;;;;;7.45;83.06;95165.94;5053034;28;21230;-84
2023/01/14 09:36:29;;;;;;;15.23;8.90;;;;;;;7.66;82.41;95157.56;5052751;28;20926;-84
2023/01/14 09:38:56;;;;;;;12.83;8.00;;;;;;;7.79;81.89;95158.38;5053502;28;20443;-83
2023/01/14 09:41:26;;;;;;;8.80;7.73;;;;;;;7.88;80.48;95163.00;5053198;28;20449;-84
2023/01/14 09:43:54;;;;;;;10.10;7.10;;;;;;;8.00;80.58;95156.88;5053004;28;20933;-85
2023/01/14 09:46:25;;;;;;;13.13;8.30;;;;;;;8.21;80.53;95158.94;5052858;28;21032;-84
2023/01/14 09:48:54;;;;;;;13.30;8.73;;;;;;;8.38;79.58;95159.44;5053890;28;20432;-89
2023/01/14 09:51:47;;;;;;;11.23;7.73;;;;;;;8.50;78.53;95160.31;5053349;28;20464;-84
2023/01/14 09:54:27;;;;;;;13.33;8.83;;;;;;;8.71;77.64;95151.88;5049782;28;20955;-84
2023/01/14 09:57:01;;;;;;;12.87;8.50;;;;;;;8.90;76.95;95152.16;5053193;28;20989;-84
2023/01/14 09:59:35;;;;;;;11.00;7.80;;;;;;;8.91;75.57;95154.66;5053455;28;20794;-84
2023/01/14 10:02:12;;;;;;;11.60;9.40;;;;;;;8.89;74.74;95153.97;5053300;28;21075;-84
2023/01/14 10:18:20;;;;;;;10.60;8.43;;;;;;;8.93;76.02;95136.25;5055393;28;20455;-85
2023/01/14 10:20:54;;;;;;;12.70;9.00;;;;;;;8.90;75.45;95141.69;5037879;28;20480;-84
2023/01/14 10:23:25;;;;;;;10.93;8.67;;;;;;;9.01;75.55;95133.91;5056422;28;20425;-84
2023/01/14 10:25:54;;;;;;;7.17;6.40;;;;;;;9.14;75.16;95132.03;5056199;28;20811;-84
2023/01/14 10:28:24;;;;;;;9.60;7.87;;;;;;;9.24;73.65;95129.53;5055970;28;20448;-84
2023/01/14 10:30:52;;;;;;;8.93;8.03;;;;;;;9.27;73.42;95135.41;5055867;28;20444;-85
2023/01/14 10:33:23;;;;;;;11.73;7.73;;;;;;;9.26;74.04;95125.88;5056220;28;21019;-85
2023/01/14 10:42:42;;;;;;;9.33;8.43;;;;;;;9.22;73.22;95124.41;5053730;28;20491;-84
2023/01/14 10:45:13;;;;;;;14.47;9.07;;;;;;;9.24;74.39;95119.06;5053025;28;20511;-84
2023/01/14 10:47:41;;;;;;;11.33;8.00;;;;;;;9.27;73.40;95119.69;5052749;28;20485;-84
2023/01/14 10:50:20;;;;;;;11.10;8.77;;;;;;;9.16;74.20;95119.66;5053546;28;20448;-85
2023/01/14 10:52:47;;;;;;;13.30;9.00;;;;;;;9.17;74.71;95113.47;5053730;28;20451;-85
2023/01/14 10:55:16;;;;;;;15.57;9.33;;;;;;;9.13;74.51;95105.97;5053360;28;20523;-85
2023/01/14 10:57:48;;;;;;;8.57;7.73;;;;;;;9.19;73.45;95101.09;5053615;28;20437;-84
2023/01/14 11:00:32;;;;;;;11.37;8.03;;;;;;;9.34;73.55;95098.28;5053673;28;20425;-85
2023/01/14 11:03:00;;;;;;;12.77;8.93;;;;;;;9.27;73.53;95095.28;5020721;28;20510;-86
2023/01/14 11:05:32;;;;;;;10.87;9.73;;;;;;;9.08;74.01;95101.06;5054261;28;20456;-92
2023/01/14 11:08:03;;;;;;;13.10;11.10;;;;;;;8.98;74.70;95092.25;5050558;28;20464;-91
2023/01/14 11:10:32;;;;;;;19.77;14.47;;;;;;;8.82;74.94;95091.72;5054281;28;20459;-92
2023/01/14 11:13:25;;;;;;;23.00;14.07;;;;;;;8.62;76.18;95088.81;5056731;28;20451;-87
2023/01/14 11:15:54;;;;;;;18.60;12.53;;;;;;;8.46;77.21;95087.44;5040733;28;20468;-90
2023/01/14 11:18:28;;;;;;;15.10;10.57;;;;;;;8.45;77.56;95084.00;5056828;28;20466;-89
2023/01/14 11:21:09;;;;;;;13.83;10.00;;;;;;;8.62;77.86;95083.56;5055154;28;21028;-90
2023/01/14 11:23:38;;;;;;;15.73;10.10;;;;;;;8.79;77.43;95086.72;5038199;28;20489;-87
2023/01/14 11:26:08;;;;;;;21.83;11.77;;;;;;;8.97;76.78;95085.38;5037086;28;20478;-87
2023/01/14 11:28:39;;;;;;;16.30;11.20;;;;;;;9.05;76.44;95082.16;5036576;28;20482;-85
2023/01/14 11:31:06;;;;;;;15.30;11.17;;;;;;;9.09;75.36;95079.19;5042222;28;20452;-90
2023/01/14 11:33:34;;;;;;;13.57;10.40;;;;;;;9.17;74.91;95081.22;5044742;28;20953;-90
2023/01/14 11:36:08;;;;;;;20.57;12.43;;;;;;;9.28;75.11;95086.47;5036704;28;20831;-91
2023/01/14 11:38:45;;;;;;;18.80;12.37;;;;;;;9.23;75.15;95089.44;5042511;28;20483;-91
2023/01/14 11:41:30;;;;;;;17.67;13.33;;;;;;;9.12;75.68;95089.44;5056927;28;20452;-92
2023/01/14 11:44:00;;;;;;;20.20;15.30;;;;;;;9.11;75.50;95098.22;5037281;28;20449;-91
2023/01/14 11:46:28;;;;;;;29.80;18.10;;;;;;;9.00;75.30;95093.81;5036465;28;20480;-90
2023/01/14 11:49:01;;;;;;;21.50;16.20;;;;;;;8.85;75.91;95099.34;5046917;28;20477;-91
2023/01/14 11:51:30;;;;;;;27.37;18.57;;;;;;;8.76;75.96;95097.44;5056346;28;20480;-91
2023/01/14 11:53:57;;;;;;;29.87;21.33;;;;;;;8.71;76.47;95095.16;5056063;28;20459;-91
2023/01/14 11:56:31;;;;;;;27.90;21.27;;;;;;;8.65;77.93;95085.13;5055664;28;20491;-91
2023/01/14 11:58:58;;;;;;;30.67;22.30;;;;;;;8.65;77.58;95096.41;5055714;28;20467;-91
2023/01/14 12:01:29;;;;;;;42.70;24.03;;;;;;;8.72;77.53;95098.59;5055435;28;20470;-91
2023/01/14 12:04:02;;;;;;;53.87;34.40;;;;;;;8.72;78.30;95103.84;5055751;28;20452;-90
2023/01/14 12:06:41;;;;;;;34.63;23.20;;;;;;;8.59;78.71;95090.81;5056157;28;20892;-91
2023/01/14 12:09:14;;;;;;;32.33;24.17;;;;;;;8.59;78.14;95091.66;5055558;28;20505;-90
2023/01/14 12:11:49;;;;;;;43.60;27.90;;;;;;;8.57;79.50;95097.94;5056304;28;20452;-91
2023/01/14 12:17:10;;;;;;;38.73;27.60;;;;;;;8.51;79.90;95096.63;5055561;28;20423;-90
2023/01/14 12:19:44;;;;;;;57.33;31.23;;;;;;;8.51;79.67;95094.00;5055652;28;20450;-91
2023/01/14 12:22:18;;;;;;;40.60;28.57;;;;;;;8.52;79.56;95090.44;5055298;28;20828;-91
2023/01/14 12:25:11;;;;;;;44.50;29.87;;;;;;;8.54;79.81;95087.72;5055229;28;20812;-91
2023/01/14 12:27:45;;;;;;;48.80;29.70;;;;;;;8.59;80.37;95081.19;5054948;28;20490;-88
2023/01/14 12:30:27;;;;;;;58.20;34.00;;;;;;;8.53;80.18;95092.09;5052564;28;20462;-86
2023/01/14 12:33:01;;;;;;;57.63;29.83;;;;;;;8.48;82.06;95089.00;5054680;28;20879;-83
2023/01/14 12:35:33;;;;;;;37.50;24.63;;;;;;;8.39;81.63;95094.91;5053121;28;20481;-86
2023/01/14 12:45:41;;;;;;;35.03;23.50;;;;;;;8.39;82.63;95092.28;5055051;28;20454;-86
2023/01/14 13:08:53;;;;;;;23.90;15.30;;;;;;;8.24;80.11;95117.72;5026726;28;20462;-85
2023/01/14 13:11:22;;;;;;;18.73;13.73;;;;;;;8.22;81.34;95113.56;5054519;28;20441;-88
2023/01/14 13:13:53;;;;;;;16.27;11.20;;;;;;;8.15;80.58;95114.94;5054599;28;20509;-89
2023/01/14 13:16:36;;;;;;;21.23;12.70;;;;;;;8.10;82.18;95110.06;5054745;28;20850;-92
2023/01/14 13:19:04;;;;;;;15.23;11.63;;;;;;;8.06;81.16;95119.03;5053914;28;20448;-86
2023/01/14 13:21:56;;;;;;;19.37;13.50;;;;;;;8.02;81.53;95125.41;5054346;28;20805;-88
2023/01/14 13:27:47;;;;;;;51.77;29.47;;;;;;;7.94;81.82;95125.97;4973353;28;20522;-89
2023/01/14 13:30:41;;;;;;;39.97;28.50;;;;;;;7.99;81.61;95116.03;4980078;28;21016;-88
2023/01/14 13:33:28;;;;;;;26.27;18.80;;;;;;;7.98;81.43;95124.81;4994306;28;20466;-87
2023/01/14 13:36:25;;;;;;;27.97;15.90;;;;;;;8.06;81.47;95132.09;5001095;28;20533;-85
2023/01/14 13:39:04;;;;;;;24.33;18.13;;;;;;;8.07;81.35;95129.38;4942715;29;20457;-90
2023/01/14 13:41:39;;;;;;;24.03;15.63;;;;;;;8.13;81.77;95129.91;4941815;29;20471;-87
2023/01/14 13:44:20;;;;;;;38.60;28.23;;;;;;;8.18;81.31;95127.78;4939170;29;20463;-92